Time;durP1;ratioP1;P1;durP2;ratioP2;P2;SDS_P1;SDS_P2;PMS_P1;PMS_P2;Temp;Humidity;BMP_temperature;BMP_pressure;BME280_temperature;BME280_humidity;BME280_pressure;Samples;Min_cycle;Max_cycle;Signal;HPM_P1;HPM_P2
2022/01/05 00:01:24;;;;;;;0.20;0.20;;;7.50;1.00;;;;;;5097072;28;20028;-76
2022/01/05 00:03:50;;;;;;;0.15;0.15;;;7.50;1.00;;;;;;5114902;28;20032;-76
2022/01/05 00:06:15;;;;;;;0.30;0.20;;;7.60;1.00;;;;;;5114961;28;20031;-76
2022/01/05 00:08:41;;;;;;;0.50;0.20;;;7.70;1.00;;;;;;5115585;28;20046;-76
2022/01/05 00:11:07;;;;;;;0.25;0.10;;;7.60;1.00;;;;;;5115485;28;20128;-76
2022/01/05 00:13:33;;;;;;;0.10;0.10;;;7.50;1.00;;;;;;5115121;28;20441;-76
2022/01/05 00:15:59;;;;;;;0.52;0.30;;;7.60;1.00;;;;;;5115292;28;20039;-76
2022/01/05 00:18:25;;;;;;;1.00;0.40;;;7.60;1.00;;;;;;5115270;28;20478;-76
2022/01/05 00:20:51;;;;;;;0.20;0.20;;;7.60;1.00;;;;;;5115457;28;20027;-76
2022/01/05 00:23:17;;;;;;;0.20;0.20;;;7.60;1.00;;;;;;5115103;28;20058;-76
2022/01/05 00:25:43;;;;;;;0.20;0.20;;;7.70;1.00;;;;;;5115325;28;20036;-76
2022/01/05 00:28:08;;;;;;;0.75;0.35;;;7.60;1.00;;;;;;5115072;28;20027;-76
2022/01/05 00:30:34;;;;;;;0.30;0.30;;;7.70;1.00;;;;;;5115334;28;20042;-76
2022/01/05 00:33:00;;;;;;;0.20;0.20;;;7.70;1.00;;;;;;5115048;28;20040;-76
2022/01/05 00:35:26;;;;;;;0.20;0.20;;;7.80;1.00;;;;;;5114870;28;20466;-76
2022/01/05 00:37:52;;;;;;;1.38;0.30;;;7.70;1.00;;;;;;5115159;28;20024;-76
2022/01/05 00:40:18;;;;;;;0.20;0.20;;;7.80;1.00;;;;;;5115091;28;20035;-76
2022/01/05 00:42:44;;;;;;;0.57;0.20;;;7.80;1.00;;;;;;5115168;28;20035;-76
2022/01/05 00:45:10;;;;;;;0.40;0.10;;;7.80;1.00;;;;;;5117850;28;20044;-76
2022/01/05 00:47:35;;;;;;;0.20;0.20;;;7.80;1.00;;;;;;5118802;28;20031;-76
2022/01/05 00:50:02;;;;;;;0.38;0.30;;;7.80;1.00;;;;;;5119003;28;20122;-76
2022/01/05 00:52:28;;;;;;;1.30;0.30;;;7.80;1.00;;;;;;5119140;28;20065;-76
2022/01/05 00:54:54;;;;;;;0.25;0.20;;;7.80;1.00;;;;;;5119304;28;20377;-76
2022/01/05 00:57:20;;;;;;;0.63;0.30;;;7.80;1.00;;;;;;5118888;28;20055;-76
2022/01/05 00:59:46;;;;;;;0.57;0.20;;;7.80;1.00;;;;;;5119368;28;20036;-76
2022/01/05 01:02:12;;;;;;;0.20;0.20;;;7.80;1.00;;;;;;5119068;28;20077;-76
2022/01/05 01:04:37;;;;;;;0.65;0.40;;;7.90;1.00;;;;;;5118836;28;20036;-76
2022/01/05 01:07:04;;;;;;;0.60;0.30;;;7.90;1.00;;;;;;5118743;28;20482;-76
2022/01/05 01:09:30;;;;;;;0.43;0.30;;;8.00;1.00;;;;;;5119089;28;20031;-76
2022/01/05 01:11:55;;;;;;;0.28;0.25;;;7.90;1.00;;;;;;5118782;28;20050;-76
2022/01/05 01:14:21;;;;;;;0.75;0.60;;;7.90;1.00;;;;;;5118797;28;20034;-76
2022/01/05 01:16:47;;;;;;;1.27;0.57;;;7.90;1.00;;;;;;5118310;28;20042;-76
2022/01/05 01:19:13;;;;;;;0.38;0.28;;;8.00;1.00;;;;;;5118335;28;20027;-77
2022/01/05 01:21:39;;;;;;;1.48;0.35;;;7.90;1.00;;;;;;5118042;28;20036;-76
2022/01/05 01:24:05;;;;;;;0.43;0.30;;;7.90;1.00;;;;;;5118021;28;20084;-76
2022/01/05 01:26:33;;;;;;;0.52;0.35;;;8.00;1.00;;;;;;5118333;28;20080;-76
2022/01/05 01:29:00;;;;;;;4.28;0.50;;;7.90;1.00;;;;;;5117636;28;20036;-76
2022/01/05 01:31:26;;;;;;;0.47;0.35;;;7.90;1.00;;;;;;5117861;28;20036;-76
2022/01/05 01:33:53;;;;;;;0.75;0.32;;;7.80;1.00;;;;;;5117843;28;20477;-76
2022/01/05 01:36:19;;;;;;;0.25;0.25;;;7.70;1.00;;;;;;5118145;28;20469;-76
2022/01/05 01:38:45;;;;;;;0.93;0.40;;;7.80;1.00;;;;;;5118053;28;20027;-76
2022/01/05 01:41:11;;;;;;;1.58;0.40;;;7.90;1.00;;;;;;5118188;28;20490;-76
2022/01/05 01:43:37;;;;;;;0.35;0.30;;;7.90;1.00;;;;;;5117989;28;20036;-76
2022/01/05 01:46:05;;;;;;;1.58;0.40;;;7.90;1.00;;;;;;5117873;28;20129;-76
2022/01/05 01:48:32;;;;;;;0.52;0.40;;;7.90;1.00;;;;;;5117646;28;20130;-76
2022/01/05 01:50:57;;;;;;;1.35;0.47;;;8.00;1.00;;;;;;5117813;28;20058;-76
2022/01/05 01:53:23;;;;;;;2.60;0.57;;;8.00;1.00;;;;;;5117755;28;20105;-76
2022/01/05 01:55:50;;;;;;;2.13;0.68;;;7.90;1.00;;;;;;5117053;28;20112;-76
2022/01/05 01:58:21;;;;;;;1.92;0.70;;;7.80;1.00;;;;;;5117409;28;20036;-76
2022/01/05 02:00:47;;;;;;;0.70;0.52;;;7.70;1.00;;;;;;5117632;28;20040;-76
2022/01/05 02:03:14;;;;;;;0.50;0.50;;;7.70;1.00;;;;;;5117565;28;20035;-76
2022/01/05 02:05:40;;;;;;;1.10;0.52;;;7.70;1.00;;;;;;5117485;28;20035;-76
2022/01/05 02:08:06;;;;;;;1.33;0.57;;;7.70;1.00;;;;;;5117879;28;20031;-76
2022/01/05 02:10:32;;;;;;;0.82;0.40;;;7.80;1.00;;;;;;5117656;28;20077;-76
2022/01/05 02:12:58;;;;;;;1.50;0.60;;;7.70;1.00;;;;;;5117707;28;20050;-76
2022/01/05 02:15:24;;;;;;;2.28;0.60;;;7.70;1.00;;;;;;5116970;28;20028;-76
2022/01/05 02:20:28;;;;;;;0.52;0.30;;;7.60;1.00;;;;;;5117041;28;20035;-76
2022/01/05 02:22:55;;;;;;;1.02;0.30;;;7.60;1.00;;;;;;5116835;28;20035;-76
2022/01/05 02:25:21;;;;;;;1.00;0.40;;;7.50;1.00;;;;;;5116901;28;20035;-76
2022/01/05 02:27:49;;;;;;;0.50;0.50;;;7.40;1.00;;;;;;5116809;28;20084;-76
2022/01/05 02:30:28;;;;;;;0.30;0.30;;;7.40;1.00;;;;;;5117709;28;20047;-77
2022/01/05 02:32:54;;;;;;;0.85;0.30;;;7.40;1.00;;;;;;5116768;28;20055;-76
2022/01/05 02:35:21;;;;;;;0.80;0.30;;;7.40;1.00;;;;;;5116964;28;20035;-76
2022/01/05 02:37:50;;;;;;;0.65;0.20;;;7.40;1.00;;;;;;5116863;28;20050;-76
2022/01/05 02:40:18;;;;;;;3.50;0.57;;;7.40;1.00;;;;;;5116279;28;20027;-76
2022/01/05 02:42:44;;;;;;;0.55;0.50;;;7.30;1.00;;;;;;5116806;28;20088;-76
2022/01/05 02:45:11;;;;;;;2.45;0.60;;;7.30;1.00;;;;;;5116426;28;20409;-76
2022/01/05 02:47:38;;;;;;;0.75;0.52;;;7.20;30.10;;;;;;5116147;28;20031;-76
2022/01/05 02:50:05;;;;;;;1.08;0.35;;;7.10;17.50;;;;;;5117007;28;20041;-76
2022/01/05 02:52:32;;;;;;;1.05;0.55;;;7.10;10.00;;;;;;5116282;28;20039;-76
2022/01/05 02:54:58;;;;;;;1.75;0.50;;;7.10;12.30;;;;;;5116312;28;20035;-76
2022/01/05 02:57:23;;;;;;;3.10;0.57;;;7.10;12.40;;;;;;5116215;28;20373;-76
2022/01/05 02:59:49;;;;;;;0.60;0.40;;;7.10;10.20;;;;;;5116264;28;20541;-76
2022/01/05 03:02:16;;;;;;;0.75;0.50;;;7.10;8.60;;;;;;5116125;28;20059;-76
2022/01/05 03:04:42;;;;;;;2.00;0.60;;;7.10;8.80;;;;;;5116182;28;20039;-76
2022/01/05 03:07:08;;;;;;;1.35;0.52;;;7.10;9.10;;;;;;5116006;28;20039;-76
2022/01/05 03:09:34;;;;;;;2.08;1.13;;;7.20;6.70;;;;;;5115973;28;20160;-76
2022/01/05 03:12:00;;;;;;;3.20;0.80;;;7.20;3.60;;;;;;5116344;28;20134;-76
2022/01/05 03:14:26;;;;;;;1.88;0.70;;;7.30;1.90;;;;;;5116756;28;20407;-76
2022/01/05 03:16:52;;;;;;;1.67;0.60;;;7.30;1.00;;;;;;5116451;28;20027;-76
2022/01/05 03:19:18;;;;;;;3.63;1.00;;;7.40;1.00;;;;;;5116021;28;20031;-76
2022/01/05 03:21:44;;;;;;;2.03;0.82;;;7.40;1.00;;;;;;5116047;28;20046;-76
2022/01/05 03:24:10;;;;;;;4.38;0.77;;;7.30;1.00;;;;;;5116402;28;20032;-76
2022/01/05 03:26:36;;;;;;;2.25;0.73;;;7.40;1.00;;;;;;5116176;28;20035;-76
2022/01/05 03:29:01;;;;;;;4.10;0.70;;;7.50;1.00;;;;;;5115995;28;20035;-76
2022/01/05 03:31:27;;;;;;;2.30;0.82;;;7.50;1.00;;;;;;5115846;28;20036;-76
2022/01/05 03:33:53;;;;;;;5.03;1.80;;;7.40;1.00;;;;;;5115679;28;20031;-76
2022/01/05 03:36:19;;;;;;;1.42;0.80;;;7.30;1.00;;;;;;5116261;28;20041;-76
2022/01/05 03:38:44;;;;;;;1.77;0.75;;;7.20;1.00;;;;;;5116657;28;20042;-76
2022/01/05 03:41:10;;;;;;;3.85;0.75;;;7.20;1.00;;;;;;5115711;28;20080;-76
2022/01/05 03:43:36;;;;;;;1.90;0.55;;;7.00;1.00;;;;;;5115848;28;20046;-76
2022/01/05 03:46:02;;;;;;;1.45;0.77;;;6.90;1.00;;;;;;5116042;28;20032;-76
2022/01/05 03:48:28;;;;;;;2.88;0.80;;;7.00;1.00;;;;;;5116311;28;20466;-76
2022/01/05 03:50:54;;;;;;;1.85;0.80;;;7.10;1.00;;;;;;5115838;28;20038;-76
2022/01/05 03:53:19;;;;;;;2.10;0.70;;;7.20;1.00;;;;;;5115622;28;20047;-76
2022/01/05 03:55:46;;;;;;;3.00;1.02;;;7.10;1.00;;;;;;5115481;28;20366;-76
2022/01/05 03:58:12;;;;;;;1.65;0.55;;;7.10;1.00;;;;;;5116063;28;20035;-76
2022/01/05 04:00:42;;;;;;;2.28;0.82;;;7.10;1.00;;;;;;5097743;28;20031;-76
2022/01/05 04:03:07;;;;;;;3.95;0.90;;;7.10;1.00;;;;;;5115166;28;20480;-76
2022/01/05 04:05:33;;;;;;;1.95;0.70;;;7.10;1.00;;;;;;5115876;28;20059;-76
2022/01/05 04:07:59;;;;;;;2.10;0.80;;;7.20;1.00;;;;;;5115255;28;20035;-76
2022/01/05 04:10:26;;;;;;;4.65;1.10;;;7.10;1.00;;;;;;5115424;28;20047;-76
2022/01/05 04:12:52;;;;;;;3.90;1.05;;;7.00;1.00;;;;;;5115097;28;20046;-76
2022/01/05 04:15:18;;;;;;;3.58;0.70;;;7.00;1.00;;;;;;5115471;28;20084;-76
2022/01/05 04:17:45;;;;;;;3.22;0.90;;;7.00;1.00;;;;;;5115012;28;20031;-76
2022/01/05 04:20:12;;;;;;;5.80;1.10;;;7.00;1.00;;;;;;5115089;28;20041;-76
2022/01/05 04:22:39;;;;;;;5.65;1.15;;;6.90;1.00;;;;;;5115119;28;20046;-76
2022/01/05 04:25:05;;;;;;;3.67;1.30;;;6.80;1.00;;;;;;5115372;28;20041;-76
2022/01/05 04:27:31;;;;;;;1.75;0.80;;;6.80;1.00;;;;;;5115062;28;20535;-76
2022/01/05 04:29:57;;;;;;;2.80;0.57;;;6.80;1.00;;;;;;5115071;28;20035;-76
2022/01/05 04:32:23;;;;;;;4.82;0.80;;;6.80;1.00;;;;;;5114912;28;20031;-76
2022/01/05 04:34:48;;;;;;;6.05;1.10;;;6.70;1.00;;;;;;5114778;28;20051;-76
2022/01/05 04:37:14;;;;;;;4.60;1.27;;;6.50;1.00;;;;;;5114591;28;20104;-76
2022/01/05 04:39:40;;;;;;;5.65;1.02;;;6.50;1.00;;;;;;5115272;28;20373;-76
2022/01/05 04:42:06;;;;;;;4.35;1.10;;;6.60;1.00;;;;;;5114839;28;20114;-76
2022/01/05 04:44:33;;;;;;;2.55;0.90;;;6.60;1.00;;;;;;5114909;28;20078;-76
2022/01/05 04:46:59;;;;;;;4.93;1.02;;;6.60;1.00;;;;;;5114695;28;20038;-76
2022/01/05 04:49:25;;;;;;;6.00;1.00;;;6.50;1.00;;;;;;5114789;28;20115;-76
2022/01/05 04:51:51;;;;;;;2.92;1.00;;;6.50;1.00;;;;;;5114976;28;20486;-76
2022/01/05 04:54:17;;;;;;;3.20;0.93;;;6.40;1.00;;;;;;5114511;28;20343;-76
2022/01/05 04:56:43;;;;;;;4.47;1.30;;;6.60;1.00;;;;;;5114964;28;20076;-76
2022/01/05 04:59:09;;;;;;;6.88;1.02;;;6.40;1.00;;;;;;5114446;28;20032;-76
2022/01/05 05:01:35;;;;;;;3.97;1.27;;;6.50;1.00;;;;;;5115015;28;20049;-76
2022/01/05 05:04:01;;;;;;;5.13;1.10;;;6.50;1.00;;;;;;5114275;28;20040;-76
2022/01/05 05:06:28;;;;;;;3.42;0.70;;;6.50;1.00;;;;;;5125217;28;20023;-76
2022/01/05 05:08:53;;;;;;;4.43;1.25;;;6.60;1.00;;;;;;5135510;28;20130;-77
2022/01/05 05:11:19;;;;;;;2.53;0.90;;;6.40;1.00;;;;;;5135505;28;20127;-76
2022/01/05 05:13:45;;;;;;;4.90;1.30;;;6.40;1.00;;;;;;5135323;28;20046;-76
2022/01/05 05:16:11;;;;;;;3.97;1.00;;;6.20;1.00;;;;;;5135349;27;20678;-76
2022/01/05 05:18:37;;;;;;;3.35;1.10;;;6.30;1.00;;;;;;5135154;28;20488;-76
2022/01/05 05:21:03;;;;;;;3.33;0.90;;;6.30;1.00;;;;;;5135093;28;20046;-76
2022/01/05 05:23:30;;;;;;;3.03;1.13;;;6.20;1.00;;;;;;5135425;28;20523;-76
2022/01/05 05:25:56;;;;;;;3.58;1.00;;;6.00;1.00;;;;;;5135039;28;20066;-76
2022/01/05 05:28:21;;;;;;;3.47;1.08;;;5.90;1.00;;;;;;5135035;27;20469;-76
2022/01/05 05:30:47;;;;;;;3.40;1.00;;;6.00;1.00;;;;;;5135617;27;20035;-76
2022/01/05 05:33:13;;;;;;;5.70;1.15;;;6.10;1.00;;;;;;5139240;27;20042;-72
2022/01/05 05:35:41;;;;;;;3.17;1.15;;;6.10;1.00;;;;;;5139010;27;20073;-75
2022/01/05 05:38:08;;;;;;;4.32;0.90;;;6.00;1.00;;;;;;5138891;27;20031;-76
2022/01/05 05:40:34;;;;;;;4.40;1.38;;;5.80;1.00;;;;;;5139236;27;20415;-75
2022/01/05 05:43:00;;;;;;;2.33;0.90;;;5.80;1.00;;;;;;5138488;27;20031;-75
2022/01/05 05:45:26;;;;;;;5.18;1.02;;;5.80;1.00;;;;;;5138504;27;20063;-75
2022/01/05 05:47:52;;;;;;;4.75;1.40;;;5.80;1.00;;;;;;5138299;27;20160;-75
2022/01/05 05:50:19;;;;;;;4.63;1.33;;;5.80;1.00;;;;;;5138866;27;20038;-75
2022/01/05 05:52:45;;;;;;;3.47;1.00;;;5.90;1.00;;;;;;5138588;27;20039;-75
2022/01/05 05:55:11;;;;;;;4.90;1.27;;;5.80;1.00;;;;;;5138306;27;20102;-75
2022/01/05 05:57:37;;;;;;;3.58;1.05;;;5.80;1.00;;;;;;5138306;27;20041;-76
2022/01/05 06:00:05;;;;;;;2.60;0.90;;;5.80;1.00;;;;;;5138536;27;20043;-75
2022/01/05 06:02:31;;;;;;;4.93;1.27;;;5.70;1.00;;;;;;5138515;27;20096;-75
2022/01/05 06:04:57;;;;;;;4.72;1.20;;;5.60;1.00;;;;;;5138280;27;20477;-75
2022/01/05 06:07:22;;;;;;;5.60;1.23;;;5.60;1.00;;;;;;5138117;27;20099;-75
2022/01/05 06:09:48;;;;;;;3.00;1.15;;;5.50;1.00;;;;;;5138466;27;20465;-76
2022/01/05 06:12:14;;;;;;;3.83;1.20;;;5.40;1.00;;;;;;5137922;27;20042;-75
2022/01/05 06:14:40;;;;;;;5.55;1.25;;;5.50;1.00;;;;;;5137961;27;20586;-75
2022/01/05 06:17:06;;;;;;;5.85;1.30;;;5.50;1.00;;;;;;5137819;27;20035;-75
2022/01/05 06:19:32;;;;;;;3.38;1.23;;;5.50;1.00;;;;;;5137540;27;20034;-75
2022/01/05 06:21:58;;;;;;;8.32;2.05;;;5.40;1.00;;;;;;5137542;27;20374;-75
2022/01/05 06:24:25;;;;;;;8.15;1.85;;;5.30;1.00;;;;;;5137739;27;20099;-75
2022/01/05 06:26:54;;;;;;;4.72;1.15;;;5.20;1.00;;;;;;5137440;27;20042;-75
2022/01/05 06:29:20;;;;;;;3.97;1.20;;;5.30;1.00;;;;;;5137979;27;20035;-75
2022/01/05 06:31:46;;;;;;;3.25;1.15;;;5.20;1.00;;;;;;5137561;27;20028;-76
2022/01/05 06:34:12;;;;;;;4.05;1.13;;;5.30;1.00;;;;;;5137390;27;20239;-75
2022/01/05 06:36:38;;;;;;;3.05;1.50;;;5.20;1.00;;;;;;5137514;27;20129;-75
2022/01/05 06:39:05;;;;;;;3.70;1.25;;;5.10;1.00;;;;;;5137136;27;20377;-75
2022/01/05 06:41:31;;;;;;;2.92;1.90;;;5.10;1.00;;;;;;5137160;27;20031;-75
2022/01/05 06:43:57;;;;;;;6.38;1.80;;;5.00;1.00;;;;;;5137591;27;20023;-75
2022/01/05 06:46:23;;;;;;;3.20;1.05;;;4.80;1.00;;;;;;5137716;27;20562;-75
2022/01/05 06:48:49;;;;;;;6.88;1.33;;;4.90;1.00;;;;;;5137320;27;20031;-75
2022/01/05 06:51:15;;;;;;;4.70;1.05;;;4.90;1.00;;;;;;5137632;27;20373;-75
2022/01/05 06:53:41;;;;;;;4.75;1.00;;;4.90;1.00;;;;;;5137155;27;20084;-75
2022/01/05 06:56:06;;;;;;;3.80;1.05;;;4.80;1.00;;;;;;5130974;27;20424;-75
2022/01/05 06:58:32;;;;;;;2.97;0.75;;;5.00;1.00;;;;;;5116581;28;20077;-75
2022/01/05 07:00:58;;;;;;;3.90;1.42;;;4.90;1.00;;;;;;5116202;28;20036;-75
2022/01/05 07:03:24;;;;;;;5.22;1.13;;;4.90;1.00;;;;;;5116265;28;20074;-75
2022/01/05 07:05:50;;;;;;;6.82;1.90;;;4.70;1.00;;;;;;5116774;27;20118;-75
2022/01/05 07:08:16;;;;;;;4.25;1.58;;;4.60;1.00;;;;;;5124725;27;20026;-75
2022/01/05 07:10:42;;;;;;;3.05;1.83;;;4.50;1.00;;;;;;5124897;27;20047;-75
2022/01/05 07:13:08;;;;;;;4.18;2.25;;;4.60;1.00;;;;;;5125484;27;20091;-76
2022/01/05 07:15:34;;;;;;;3.40;1.40;;;4.50;1.00;;;;;;5126652;27;20513;-76
2022/01/05 07:18:00;;;;;;;4.72;1.42;;;4.40;1.00;;;;;;5124165;27;20031;-76
2022/01/05 07:20:26;;;;;;;3.15;1.73;;;4.70;1.00;;;;;;5126004;27;20035;-76
2022/01/05 07:22:51;;;;;;;5.50;1.75;;;4.70;1.00;;;;;;5129365;27;20031;-76
2022/01/05 07:25:17;;;;;;;1.92;1.08;;;4.70;1.00;;;;;;5136572;27;20087;-76
2022/01/05 07:27:43;;;;;;;5.30;1.38;;;4.70;1.00;;;;;;5136462;27;20083;-76
2022/01/05 07:30:10;;;;;;;7.07;1.42;;;4.70;1.00;;;;;;5136672;27;20099;-76
2022/01/05 07:32:36;;;;;;;1.92;0.90;;;4.60;1.00;;;;;;5136161;27;20092;-76
2022/01/05 07:35:03;;;;;;;2.20;1.30;;;4.60;1.00;;;;;;5136393;27;20031;-76
2022/01/05 07:37:29;;;;;;;3.08;1.13;;;4.50;1.00;;;;;;5123461;27;20079;-76
2022/01/05 07:39:55;;;;;;;3.85;1.20;;;4.50;1.00;;;;;;5119247;27;20039;-77
2022/01/05 07:42:21;;;;;;;4.35;1.40;;;4.40;1.00;;;;;;5128574;27;20508;-76
2022/01/05 07:44:47;;;;;;;3.65;1.13;;;4.50;1.00;;;;;;5118829;27;20070;-76
2022/01/05 07:47:13;;;;;;;3.80;1.50;;;4.50;1.00;;;;;;5112259;27;20039;-76
2022/01/05 07:49:39;;;;;;;2.88;1.58;;;4.30;1.00;;;;;;5122169;27;20089;-76
2022/01/05 07:52:06;;;;;;;4.20;1.63;;;4.30;1.00;;;;;;5124656;27;20067;-76
2022/01/05 07:54:35;;;;;;;4.35;1.73;;;4.20;1.00;;;;;;5122541;27;20121;-76
2022/01/05 07:57:01;;;;;;;2.88;0.95;;;4.30;1.00;;;;;;5133487;27;20035;-76
2022/01/05 07:59:27;;;;;;;3.67;1.50;;;4.20;1.00;;;;;;5133799;27;20039;-76
2022/01/05 08:01:53;;;;;;;2.03;1.13;;;4.10;1.00;;;;;;5134321;27;20038;-76
2022/01/05 08:04:19;;;;;;;5.93;1.40;;;4.20;1.00;;;;;;5133416;27;20080;-76
2022/01/05 08:06:45;;;;;;;5.00;1.70;;;4.10;1.00;;;;;;5133735;27;20034;-76
2022/01/05 08:09:11;;;;;;;4.15;1.65;;;4.10;1.00;;;;;;5133663;27;20114;-76
2022/01/05 08:11:36;;;;;;;3.45;1.10;;;4.00;1.00;;;;;;5133527;27;20185;-76
2022/01/05 08:14:04;;;;;;;6.70;1.83;;;4.00;1.00;;;;;;5130229;27;20055;-76
2022/01/05 08:16:29;;;;;;;5.97;1.17;;;4.00;1.00;;;;;;5131507;27;20035;-76
2022/01/05 08:18:55;;;;;;;3.63;1.02;;;4.20;1.00;;;;;;5130010;27;20459;-76
2022/01/05 08:21:22;;;;;;;3.95;1.05;;;4.10;1.00;;;;;;5133762;27;20035;-78
2022/01/05 08:23:48;;;;;;;3.53;1.30;;;4.20;1.00;;;;;;5133692;27;20066;-76
2022/01/05 08:26:15;;;;;;;3.03;0.90;;;4.20;1.00;;;;;;5126669;28;20031;-75
2022/01/05 08:28:40;;;;;;;2.25;1.05;;;4.30;1.00;;;;;;5126906;27;20031;-75
2022/01/05 08:31:07;;;;;;;2.90;0.88;;;4.20;1.00;;;;;;5129335;28;20043;-75
2022/01/05 08:33:34;;;;;;;1.90;0.70;;;4.30;1.00;;;;;;5133370;28;20104;-76
2022/01/05 08:36:01;;;;;;;1.70;0.68;;;4.30;1.00;;;;;;5133722;28;20519;-76
2022/01/05 08:38:28;;;;;;;3.10;1.00;;;4.30;1.00;;;;;;5133057;28;20539;-76
2022/01/05 08:40:54;;;;;;;1.67;0.88;;;4.30;1.00;;;;;;5133414;28;20043;-76
2022/01/05 08:43:20;;;;;;;2.53;0.77;;;4.30;1.00;;;;;;5133355;28;20485;-76
2022/01/05 08:45:46;;;;;;;3.33;0.90;;;4.40;1.00;;;;;;5133449;28;20038;-76
2022/01/05 08:48:13;;;;;;;1.70;0.70;;;4.40;1.00;;;;;;5133279;28;20512;-76
2022/01/05 08:50:39;;;;;;;2.72;1.00;;;4.30;1.00;;;;;;5119371;28;20028;-75
2022/01/05 08:53:06;;;;;;;4.10;1.25;;;4.30;1.00;;;;;;5128396;28;20488;-75
2022/01/05 08:55:42;;;;;;;2.50;1.13;;;4.20;1.00;;;;;;5131986;28;20035;-75
2022/01/05 08:58:09;;;;;;;2.20;0.85;;;4.30;1.00;;;;;;5129699;28;20031;-75
2022/01/05 09:00:36;;;;;;;3.97;0.90;;;4.20;1.00;;;;;;5135972;28;20039;-74
2022/01/05 09:03:03;;;;;;;3.25;0.90;;;4.30;1.00;;;;;;5129961;28;20036;-74
2022/01/05 09:05:30;;;;;;;6.07;1.00;;;4.30;1.00;;;;;;5133993;27;20421;-75
2022/01/05 09:07:56;;;;;;;2.38;0.98;;;4.20;1.00;;;;;;5136047;27;20031;-75
2022/01/05 09:10:22;;;;;;;3.30;1.08;;;4.20;1.00;;;;;;5136700;27;20043;-75
2022/01/05 09:12:48;;;;;;;2.40;1.10;;;4.20;1.00;;;;;;5136167;27;20346;-75
2022/01/05 09:15:14;;;;;;;1.92;0.80;;;4.20;1.00;;;;;;5130351;27;20468;-75
2022/01/05 09:17:40;;;;;;;1.95;1.05;;;4.20;1.00;;;;;;5124403;27;20039;-74
2022/01/05 09:20:07;;;;;;;3.58;1.10;;;4.20;1.00;;;;;;5127951;27;20076;-75
2022/01/05 09:22:37;;;;;;;6.10;1.55;;;4.20;1.00;;;;;;5130114;27;20117;-75
2022/01/05 09:25:05;;;;;;;3.00;1.27;;;4.20;1.00;;;;;;5133728;27;20047;-74
2022/01/05 09:27:31;;;;;;;4.32;1.30;;;4.30;1.00;;;;;;5127722;27;20035;-74
2022/01/05 09:29:57;;;;;;;3.67;0.75;;;4.30;1.00;;;;;;5136617;27;20053;-76
2022/01/05 09:32:23;;;;;;;2.60;0.88;;;4.30;1.00;;;;;;5137060;27;20027;-73
2022/01/05 09:34:50;;;;;;;3.28;1.00;;;4.30;1.00;;;;;;5136665;27;20035;-73
2022/01/05 09:37:30;;;;;;;4.00;1.10;;;4.30;1.00;;;;;;5136925;27;20031;-73
2022/01/05 09:42:41;;;;;;;1.92;0.82;;;4.40;1.00;;;;;;5132203;27;20060;-74
2022/01/05 09:45:28;;;;;;;2.47;0.85;;;4.40;1.00;;;;;;5131874;27;20381;-75
2022/01/05 09:48:28;;;;;;;2.78;1.20;;;4.40;1.00;;;;;;5123181;27;20051;-74
2022/01/05 09:51:05;;;;;;;2.45;1.00;;;4.40;1.00;;;;;;5122509;27;20032;-73
2022/01/05 09:53:33;;;;;;;4.82;1.70;;;4.40;1.00;;;;;;5125214;27;20103;-74
2022/01/05 09:55:59;;;;;;;2.40;1.58;;;4.50;1.00;;;;;;5133038;27;20073;-73
2022/01/05 09:58:27;;;;;;;3.40;1.15;;;4.50;1.00;;;;;;5128376;27;20545;-74
2022/01/05 10:00:53;;;;;;;3.03;1.02;;;4.40;1.00;;;;;;5126179;27;20081;-74
2022/01/05 10:03:22;;;;;;;1.88;1.15;;;4.50;1.00;;;;;;5125014;27;20031;-75
2022/01/05 10:05:48;;;;;;;8.38;3.10;;;4.50;1.00;;;;;;5126118;27;20410;-75
2022/01/05 10:08:14;;;;;;;3.70;1.58;;;4.40;1.00;;;;;;5131871;27;20096;-74
2022/01/05 10:10:42;;;;;;;2.75;1.40;;;4.50;1.00;;;;;;5129899;27;20062;-73
2022/01/05 10:13:08;;;;;;;4.90;2.08;;;4.60;1.00;;;;;;5130993;27;20113;-73
2022/01/05 10:15:35;;;;;;;5.43;1.75;;;4.50;1.00;;;;;;5135964;27;20505;-74
2022/01/05 10:18:13;;;;;;;4.10;1.02;;;4.50;1.00;;;;;;5128604;27;20039;-74
2022/01/05 10:21:02;;;;;;;2.85;1.05;;;4.60;1.00;;;;;;5124654;27;20032;-75
2022/01/05 10:23:48;;;;;;;3.03;1.40;;;4.60;1.00;;;;;;5133799;27;20038;-76
2022/01/05 10:26:43;;;;;;;4.53;1.58;;;4.60;1.00;;;;;;5131901;27;20109;-75
2022/01/05 10:29:20;;;;;;;4.75;1.90;;;4.60;1.00;;;;;;5112779;27;20038;-75
2022/01/05 10:31:53;;;;;;;9.77;5.85;;;4.70;1.00;;;;;;5134987;27;20103;-75
2022/01/05 10:34:21;;;;;;;6.45;2.53;;;4.60;1.00;;;;;;5134838;27;20481;-75
2022/01/05 10:36:52;;;;;;;1.80;1.33;;;4.60;1.00;;;;;;5135489;27;20074;-76
2022/01/05 10:39:30;;;;;;;4.22;1.38;;;4.60;1.00;;;;;;5133890;27;20023;-76
2022/01/05 10:42:02;;;;;;;4.75;1.83;;;4.70;1.00;;;;;;5121652;27;20062;-76
2022/01/05 10:44:28;;;;;;;7.65;2.65;;;4.50;1.00;;;;;;5122245;27;20034;-76
2022/01/05 10:46:58;;;;;;;4.53;1.30;;;4.70;1.00;;;;;;5120081;27;20039;-76
2022/01/05 10:49:42;;;;;;;4.57;1.52;;;4.70;1.00;;;;;;5120868;27;20035;-76
2022/01/05 10:52:23;;;;;;;6.47;2.40;;;4.80;1.00;;;;;;5120071;27;20513;-76
2022/01/05 10:54:49;;;;;;;4.63;1.50;;;4.70;1.00;;;;;;5119777;27;20550;-76
2022/01/05 10:57:16;;;;;;;8.52;3.25;;;4.70;1.00;;;;;;5125578;27;20158;-76
2022/01/05 10:59:53;;;;;;;5.65;2.55;;;4.80;1.00;;;;;;5120704;27;20481;-76
2022/01/05 11:02:34;;;;;;;4.43;1.55;;;4.70;1.00;;;;;;5134248;27;20083;-74
2022/01/05 11:05:09;;;;;;;5.47;1.25;;;4.80;1.00;;;;;;5134006;27;20031;-76
2022/01/05 11:07:39;;;;;;;4.03;1.27;;;4.80;1.00;;;;;;5134035;27;20038;-75
2022/01/05 11:10:12;;;;;;;3.45;0.98;;;4.70;1.00;;;;;;5123908;27;20061;-75
2022/01/05 11:12:43;;;;;;;5.03;1.02;;;4.80;1.00;;;;;;5134524;27;20042;-76
2022/01/05 11:15:33;;;;;;;3.67;1.02;;;4.90;1.00;;;;;;5128639;27;20051;-75
2022/01/05 11:18:12;;;;;;;4.22;1.27;;;5.00;1.00;;;;;;5124677;27;20086;-75
2022/01/05 11:20:42;;;;;;;1.67;0.90;;;5.00;1.00;;;;;;5135034;27;20035;-76
2022/01/05 11:23:10;;;;;;;3.08;1.42;;;5.10;1.00;;;;;;5126684;27;20031;-75
2022/01/05 11:25:37;;;;;;;4.57;1.67;;;5.30;1.00;;;;;;5134942;27;20095;-76
2022/01/05 11:28:05;;;;;;;2.63;1.45;;;5.30;1.00;;;;;;5123326;27;20106;-76
2022/01/05 11:30:31;;;;;;;3.03;1.10;;;5.40;1.00;;;;;;5125940;27;20038;-76
2022/01/05 11:32:58;;;;;;;3.70;1.15;;;5.40;1.00;;;;;;5123207;27;20042;-77
2022/01/05 11:35:25;;;;;;;3.45;1.15;;;5.40;1.00;;;;;;5134690;27;20119;-75
2022/01/05 11:37:50;;;;;;;4.18;1.02;;;5.50;1.00;;;;;;5128324;27;20031;-76
2022/01/05 11:40:17;;;;;;;2.15;0.95;;;5.50;1.00;;;;;;5122500;27;20042;-76
2022/01/05 11:42:48;;;;;;;3.50;1.20;;;5.40;1.00;;;;;;5128917;27;20035;-76
2022/01/05 11:45:36;;;;;;;2.10;0.80;;;5.50;1.00;;;;;;5134808;27;20088;-76
2022/01/05 11:48:14;;;;;;;3.25;1.20;;;5.40;1.00;;;;;;5125317;27;20047;-76
2022/01/05 11:50:50;;;;;;;5.18;1.15;;;5.60;1.00;;;;;;5128824;27;20039;-76
2022/01/05 11:53:37;;;;;;;5.57;1.20;;;5.60;1.00;;;;;;5134003;27;20031;-75
2022/01/05 11:56:16;;;;;;;3.67;0.90;;;5.70;1.00;;;;;;5126784;27;20035;-75
2022/01/05 11:58:57;;;;;;;3.75;1.00;;;5.70;1.00;;;;;;5134319;27;20373;-74
2022/01/05 12:01:37;;;;;;;7.57;1.75;;;5.60;1.00;;;;;;5131216;27;20467;-74
2022/01/05 12:04:10;;;;;;;3.22;1.00;;;5.60;1.00;;;;;;5125052;27;20039;-74
2022/01/05 12:07:01;;;;;;;3.30;1.10;;;5.50;1.00;;;;;;5126312;27;20122;-76
2022/01/05 12:09:30;;;;;;;3.45;1.17;;;5.40;1.00;;;;;;5110366;27;20029;-77
2022/01/05 12:12:19;;;;;;;4.70;1.17;;;5.30;1.00;;;;;;5125751;27;20055;-77
2022/01/05 12:14:46;;;;;;;4.07;1.20;;;5.30;1.00;;;;;;5127850;27;20032;-77
2022/01/05 12:17:18;;;;;;;5.75;1.30;;;5.30;1.00;;;;;;5127130;27;20031;-77
2022/01/05 12:19:47;;;;;;;5.03;1.50;;;5.20;1.00;;;;;;5122921;27;20050;-76
2022/01/05 12:22:42;;;;;;;4.88;1.30;;;5.20;1.00;;;;;;5133764;27;20062;-77
2022/01/05 12:25:12;;;;;;;4.45;1.55;;;5.20;1.00;;;;;;5101655;27;20027;-77
2022/01/05 12:27:38;;;;;;;4.97;1.08;;;5.20;1.00;;;;;;5133738;27;20125;-77
2022/01/05 12:30:10;;;;;;;7.22;1.50;;;5.10;1.00;;;;;;5131262;28;20038;-77
2022/01/05 12:32:39;;;;;;;3.35;1.58;;;5.20;1.00;;;;;;5133469;28;20039;-77
2022/01/05 12:35:07;;;;;;;5.13;1.50;;;5.20;1.00;;;;;;5132232;28;20038;-76
2022/01/05 12:37:55;;;;;;;4.63;1.10;;;5.30;1.00;;;;;;5123340;27;20043;-77
2022/01/05 12:40:21;;;;;;;5.03;1.40;;;5.30;1.00;;;;;;5126064;27;20355;-75
2022/01/05 12:42:48;;;;;;;6.03;1.42;;;5.30;1.00;;;;;;5123747;27;20490;-77
2022/01/05 12:45:53;;;;;;;5.00;1.40;;;5.30;1.00;;;;;;5129691;27;20054;-77
2022/01/05 12:48:35;;;;;;;5.65;1.25;;;5.40;1.00;;;;;;5124594;27;20030;-76
2022/01/05 12:51:22;;;;;;;7.03;1.35;;;5.50;1.00;;;;;;5126790;27;20042;-75
2022/01/05 12:54:06;;;;;;;5.05;1.48;;;5.60;1.00;;;;;;5113713;27;20039;-76
2022/01/05 12:56:56;;;;;;;6.32;1.55;;;5.90;1.00;;;;;;5133639;27;20039;-77
2022/01/05 12:59:27;;;;;;;4.23;1.23;;;5.90;1.00;;;;;;5130822;27;20031;-76
2022/01/05 13:01:54;;;;;;;5.75;1.58;;;5.90;1.00;;;;;;5131082;27;20098;-77
2022/01/05 13:04:24;;;;;;;4.25;1.52;;;5.90;1.00;;;;;;5127250;27;20040;-76
2022/01/05 13:06:52;;;;;;;4.35;1.42;;;6.00;1.00;;;;;;5129370;27;20500;-76
2022/01/05 13:09:27;;;;;;;7.10;1.35;;;6.10;1.00;;;;;;5123038;27;20069;-77
2022/01/05 13:11:58;;;;;;;5.55;1.27;;;6.10;1.00;;;;;;5128786;27;20039;-77
2022/01/05 13:14:32;;;;;;;5.85;1.20;;;6.10;1.00;;;;;;5136008;27;20127;-76
2022/01/05 13:17:06;;;;;;;8.95;1.63;;;6.00;1.00;;;;;;5136278;27;20039;-77
2022/01/05 13:19:58;;;;;;;7.85;1.40;;;6.00;1.00;;;;;;5133917;27;20031;-76